Latest Weather Observations for Port Macquarie Airport

IDN60801

Issued at 9:03 am EST Monday 21 August 2017 (issued every 30 minutes, with the page automatically refreshed every 10 minutes)

About weather observations | Map of weather stations | Latest weather observations for NSW | Other Formats
Station Details ID: 060139 Name: PORT MACQUARIE AIRPORT AWS Lat: -31.43 Lon: 152.87 Height: 4.2 m
Data from the previous 72 hours. | See also: Recent months at Port Macquarie Airport
Date/Time
EST
Temp
°C
App
Temp
°C
Dew
Point
°C
Rel
Hum
%
Delta-T
°C
Wind Press
QNH
hPa
Press
MSL
hPa
Rain since
9am
mm
Dir  Spd
km/h
Gust
km/h
Spd
kts
Gust
kts
21/09:00am 11.6 9.2 6.9 73 2.2 NW 9 13 5 7 1021.2 1021.2 0.0
21/08:30am 11.5 9.5 7.0 74 2.1 NNW 7 9 4 5 1021.4 1021.4 0.0
21/08:00am 10.5 7.6 6.6 77 1.8 WNW 11 17 6 9 1021.6 1021.6 0.0
21/07:30am 8.6 7.0 6.4 86 1.0 NW 4 11 2 6 1021.2 1021.2 0.0
21/07:00am 7.7 6.0 5.7 87 0.9 NW 4 9 2 5 1021.0 1021.0 0.0
21/06:30am 6.9 4.6 5.8 93 0.5 WNW 7 13 4 7 1021.1 1021.1 0.0
21/06:00am 4.9 2.7 3.6 91 0.5 NW 4 6 2 3 1020.4 1020.4 0.0
21/05:30am 5.8 3.6 3.6 86 0.9 WSW 4 7 2 4 1020.2 1020.2 0.0
21/05:00am 7.3 5.1 5.1 86 1.0 WNW 6 9 3 5 1020.4 1020.4 0.0
21/04:30am 7.8 5.1 5.6 86 1.0 W 9 13 5 7 1020.2 1020.2 0.0
21/04:00am 7.8 5.5 5.8 87 0.9 W 7 11 4 6 1020.4 1020.4 0.0
21/03:30am 7.6 5.0 5.9 89 0.8 WNW 9 11 5 6 1020.5 1020.5 0.0
21/03:00am 7.3 5.9 5.4 88 0.8 SW 2 9 1 5 1020.3 1020.3 0.0
21/02:30am 7.5 5.7 5.3 86 1.0 WNW 4 7 2 4 1020.4 1020.4 0.0
21/02:00am 8.1 6.4 5.7 85 1.1 WSW 4 11 2 6 1020.5 1020.5 0.0
21/01:30am 9.3 5.7 6.9 85 1.1 W 15 20 8 11 1020.8 1020.8 0.0
21/01:00am 8.9 6.1 7.0 88 0.9 WNW 11 15 6 8 1021.0 1021.0 0.0
21/12:30am 8.2 6.0 5.5 83 1.2 W 6 11 3 6 1021.1 1021.1 0.0
21/12:00am 8.3 6.5 5.2 81 1.4 SW 4 9 2 5 1021.2 1021.2 0.0
 
Date/Time
EST
Temp
°C
App
Temp
°C
Dew
Point
°C
Rel
Hum
%
Delta-T
°C
Wind Press
QNH
hPa
Press
MSL
hPa
Rain since
9am
mm
Dir  Spd
km/h
Gust
km/h
Spd
kts
Gust
kts
20/11:30pm 10.2 7.1 7.1 81 1.5 W 13 19 7 10 1021.4 1021.4 0.0
20/11:00pm 10.6 6.4 7.3 80 1.6 W 19 26 10 14 1021.6 1021.6 0.0
20/10:30pm 10.3 6.4 7.2 81 1.5 W 17 24 9 13 1021.7 1021.7 0.0
20/10:00pm 10.5 6.3 7.4 81 1.5 W 19 24 10 13 1021.8 1021.8 0.0
20/09:30pm 10.4 7.3 7.3 81 1.5 W 13 20 7 11 1021.5 1021.5 0.0
20/09:00pm 10.3 6.8 7.4 82 1.4 W 15 20 8 11 1021.4 1021.4 0.0
20/08:30pm 10.2 7.5 7.3 82 1.4 W 11 15 6 8 1021.3 1021.3 0.0
20/08:00pm 10.3 8.3 7.2 81 1.5 W 7 9 4 5 1021.5 1021.5 0.0
20/07:30pm 11.2 8.2 7.7 79 1.7 W 13 19 7 10 1021.5 1021.5 0.0
20/07:00pm 10.4 8.1 7.6 83 1.3 WSW 9 13 5 7 1021.3 1021.3 0.0
20/06:30pm 11.3 8.6 7.4 77 1.9 WSW 11 13 6 7 1021.0 1021.0 0.0
20/06:00pm 11.8 8.8 7.7 76 2.0 WSW 13 15 7 8 1020.9 1020.9 0.0
20/05:30pm 12.6 10.0 7.7 72 2.4 W 11 17 6 9 1020.9 1020.9 0.0
20/05:00pm 13.2 9.8 7.6 69 2.7 WSW 15 20 8 11 1020.9 1020.9 0.0
20/04:30pm 13.5 9.7 7.5 67 2.9 W 17 24 9 13 1020.9 1020.9 0.0
20/04:00pm 13.8 9.3 7.1 64 3.2 W 20 30 11 16 1020.7 1020.7 0.0
20/03:30pm 13.7 9.3 7.5 66 3.0 WSW 20 28 11 15 1020.5 1020.5 0.0
20/03:00pm 15.2 10.6 6.7 57 4.1 SW 20 33 11 18 1020.3 1020.3 0.0
20/02:30pm 15.2 9.5 6.7 57 4.1 SW 26 35 14 19 1020.1 1020.1 0.0
20/02:00pm 14.5 8.4 6.8 60 3.7 SSW 28 41 15 22 1020.3 1020.3 0.0
20/01:30pm 15.6 9.9 6.6 55 4.4 SW 26 37 14 20 1020.1 1020.1 0.0
20/01:00pm 15.3 9.8 5.8 53 4.5 SW 24 37 13 20 1020.3 1020.3 0.0
20/12:30pm 15.7 8.9 5.3 50 4.9 SW 30 41 16 22 1020.5 1020.5 0.0
20/12:00pm 16.1 9.0 5.4 49 5.1 SW 32 44 17 24 1020.9 1020.9 0.0
20/11:38am 15.6 9.1 4.9 49 5.0 SW 28 46 15 25 1021.1 1021.1 0.0
20/11:30am 15.1 7.6 4.5 49 4.9 SW 33 46 18 25 1021.3 1021.3 0.0
20/11:00am 15.0 7.1 4.4 49 4.9 SW 35 50 19 27 1021.8 1021.8 0.0
20/10:30am 14.6 6.7 4.6 51 4.6 SW 35 52 19 28 1022.0 1022.0 0.0
20/10:00am 14.3 7.3 4.0 50 4.7 SW 30 50 16 27 1022.0 1022.0 0.0
20/09:55am 14.2 7.1 3.4 48 4.9 SW 30 50 16 27 1022.1 1022.1 0.0
20/09:30am 14.4 7.0 3.8 49 4.8 WSW 32 48 17 26 1021.9 1021.9 0.0
20/09:00am 13.8 7.1 3.9 51 4.5 SW 28 41 15 22 1021.8 1021.8 0.2
20/08:30am 12.9 5.6 2.7 50 4.5 SW 30 44 16 24 1021.7 1021.7 0.2
20/08:00am 12.5 6.5 3.2 53 4.1 SW 24 35 13 19 1021.3 1021.3 0.2
20/07:30am 11.8 5.7 2.5 53 4.0 WSW 24 37 13 20 1021.1 1021.1 0.2
20/07:00am 10.7 5.5 2.5 57 3.5 WSW 19 30 10 16 1020.8 1020.8 0.2
20/06:30am 10.0 4.2 2.1 58 3.3 WSW 22 32 12 17 1020.5 1020.5 0.2
20/06:00am 10.1 3.9 2.2 58 3.3 WSW 24 37 13 20 1020.2 1020.2 0.2
20/05:30am 9.7 4.3 2.6 61 3.0 WSW 20 26 11 14 1019.8 1019.8 0.2
20/05:00am 9.6 4.2 2.7 62 2.9 WSW 20 30 11 16 1019.6 1019.6 0.2
20/04:30am 9.5 4.4 3.3 65 2.7 WSW 19 32 10 17 1019.2 1019.2 0.2
20/04:00am 9.8 4.6 3.5 65 2.7 WSW 20 30 11 16 1018.9 1018.9 0.2
20/03:30am 10.1 4.9 3.8 65 2.8 WSW 20 30 11 16 1018.7 1018.7 0.2
20/03:00am 10.0 5.1 4.0 66 2.6 WSW 19 32 10 17 1018.8 1018.8 0.2
20/02:30am 10.1 3.5 4.3 67 2.6 SW 28 39 15 21 1019.2 1019.2 0.2
20/02:00am 10.0 3.8 4.4 68 2.5 SW 26 39 14 21 1019.2 1019.2 0.2
20/01:30am 10.1 3.9 4.3 67 2.6 WSW 26 41 14 22 1019.2 1019.2 0.2
20/01:01am 10.1 3.4 3.6 64 2.8 WSW 28 46 15 25 1019.0 1019.0 0.2
20/01:00am 10.1 3.0 3.8 65 2.8 WSW 30 46 16 25 1019.0 1019.0 0.2
20/12:53am 10.4 3.7 3.9 64 2.9 WSW 28 46 15 25 1019.1 1019.1 0.2
20/12:30am 10.1 3.8 4.0 66 2.7 WSW 26 39 14 21 1018.9 1018.9 0.2
20/12:00am 9.8 4.1 4.8 71 2.2 SW 24 35 13 19 1019.5 1019.5 0.2
 
Date/Time
EST
Temp
°C
App
Temp
°C
Dew
Point
°C
Rel
Hum
%
Delta-T
°C
Wind Press
QNH
hPa
Press
MSL
hPa
Rain since
9am
mm
Dir  Spd
km/h
Gust
km/h
Spd
kts
Gust
kts
19/11:30pm 9.7 3.5 4.5 70 2.3 SW 26 41 14 22 1019.4 1019.4 0.2
19/11:00pm 9.8 3.4 5.0 72 2.2 WSW 28 39 15 21 1019.2 1019.2 0.2
19/10:38pm 10.4 2.6 5.0 69 2.4 SW 35 57 19 31 1019.4 1019.4 0.2
19/10:30pm 10.3 3.2 5.3 71 2.3 SW 32 48 17 26 1019.3 1019.3 0.2
19/10:12pm 10.4 4.1 5.6 72 2.2 SW 28 54 15 29 1019.6 1019.6 0.2
19/10:00pm 10.7 5.1 5.5 70 2.4 SW 24 33 13 18 1019.5 1019.5 0.0
19/09:30pm 10.7 3.3 5.0 68 2.6 SW 33 52 18 28 1019.2 1019.2 0.0
19/09:16pm 11.3 4.8 4.7 64 3.0 SW 28 57 15 31 1019.4 1019.4 0.0
19/09:00pm 11.8 5.1 3.6 57 3.6 SW 28 43 15 23 1019.1 1019.1 0.0
19/08:30pm 11.7 4.6 3.5 57 3.6 SW 30 44 16 24 1018.7 1018.7 0.0
19/08:15pm 11.7 5.1 4.0 59 3.4 SW 28 46 15 25 1018.8 1018.8 0.0
19/08:00pm 11.8 5.9 4.1 59 3.4 SW 24 39 13 21 1018.6 1018.6 0.0
19/07:30pm 11.8 4.6 4.8 62 3.2 SSW 32 43 17 23 1018.5 1018.5 0.0
19/07:00pm 11.9 6.9 6.4 69 2.6 SW 22 37 12 20 1018.2 1018.2 0.0
19/06:30pm 11.9 7.2 6.2 68 2.7 SSW 20 33 11 18 1017.7 1017.7 0.0
19/06:00pm 12.3 7.1 5.5 63 3.2 SSW 22 37 12 20 1017.4 1017.4 0.0
19/05:30pm 11.8 6.2 5.2 64 3.0 SSW 24 35 13 19 1016.9 1016.9 0.0
19/05:02pm 12.6 5.7 6.6 67 2.9 SSW 32 52 17 28 1016.3 1016.3 0.0
19/05:00pm 12.7 6.2 6.7 67 2.9 SSW 30 41 16 22 1016.2 1016.2 0.0
19/04:30pm 13.6 6.7 6.5 62 3.4 SSW 32 46 17 25 1015.7 1015.7 0.0
19/04:00pm 15.5 8.0 -1.5 31 7.0 SW 28 43 15 23 1014.9 1014.9 0.0
19/03:30pm 16.1 7.9 -1.0 31 7.1 SW 32 44 17 24 1014.8 1014.8 0.0
19/03:14pm 16.6 8.7 -1.5 29 7.5 SW 30 54 16 29 1014.5 1014.5 0.0
19/03:00pm 16.8 8.0 -0.9 30 7.4 SW 35 48 19 26 1014.3 1014.3 0.0
19/02:36pm 15.9 7.4 -1.6 30 7.2 SW 33 52 18 28 1014.1 1014.1 0.0
19/02:30pm 16.7 8.3 -0.9 30 7.4 SW 33 48 18 26 1014.2 1014.2 0.0
19/02:04pm 16.8 7.4 0.0 32 7.2 SW 39 57 21 31 1014.1 1014.1 0.0
19/02:00pm 16.2 6.2 -1.4 30 7.3 SW 41 57 22 31 1014.0 1014.0 0.0
19/01:30pm 16.5 7.8 -0.7 31 7.3 SW 35 54 19 29 1013.8 1013.8 0.0
19/01:14pm 16.5 7.3 -1.1 30 7.4 SW 37 57 20 31 1013.8 1013.8 0.0
19/01:00pm 16.4 6.8 -1.7 29 7.5 SW 39 54 21 29 1013.8 1013.8 0.0
19/12:35pm 16.3 7.4 -2.2 28 7.5 SW 35 57 19 31 1013.7 1013.7 0.0
19/12:30pm 16.2 7.6 -2.3 28 7.5 SW 33 46 18 25 1013.7 1013.7 0.0
19/12:20pm 16.1 8.5 -2.4 28 7.5 SW 28 48 15 26 1013.5 1013.5 0.0
19/12:00pm 16.5 8.0 -1.6 29 7.5 SW 33 50 18 27 1013.9 1013.9 0.0
19/11:54am 16.5 8.3 -1.1 30 7.4 SW 32 50 17 27 1014.0 1014.0 0.0
19/11:30am 15.9 7.0 -1.6 30 7.2 SW 35 50 19 27 1014.2 1014.2 0.0
19/11:20am 15.5 6.2 -2.4 29 7.2 SW 37 50 20 27 1014.1 1014.1 0.0
19/11:00am 15.7 7.1 -2.3 29 7.3 WSW 33 44 18 24 1014.0 1014.0 0.0
19/10:44am 15.6 5.9 -1.9 30 7.1 SW 39 57 21 31 1014.2 1014.2 0.0
19/10:30am 15.0 4.9 -2.4 30 7.0 SW 41 54 22 29 1014.3 1014.3 0.0
19/10:22am 15.4 6.8 -2.5 29 7.2 SW 33 52 18 28 1014.4 1014.4 0.0
19/10:00am 14.5 5.5 -2.4 31 6.7 SW 35 46 19 25 1014.1 1014.1 0.0
19/09:30am 14.2 5.6 -2.2 32 6.5 SW 33 46 18 25 1014.1 1014.1 0.0
19/09:13am 14.2 6.3 -1.8 33 6.4 WSW 30 46 16 25 1014.0 1014.0 0.0
19/09:00am 14.2 8.5 -1.0 35 6.2 WSW 19 28 10 15 1014.0 1014.0 0.0
19/08:30am 13.2 7.4 -1.2 37 5.8 WSW 19 32 10 17 1014.4 1014.4 0.0
19/08:00am 12.3 6.6 -0.6 41 5.2 W 19 26 10 14 1014.3 1014.3 0.0
19/07:30am 11.4 5.5 -0.7 43 4.8 W 20 30 11 16 1014.1 1014.1 0.0
19/07:00am 10.5 5.9 -0.9 45 4.5 W 13 19 7 10 1014.0 1014.0 0.0
19/06:30am 10.4 5.4 -1.3 44 4.6 W 15 24 8 13 1013.6 1013.6 0.0
19/06:00am 10.7 4.9 -1.4 43 4.7 W 19 24 10 13 1013.3 1013.3 0.0
19/05:30am 11.1 5.3 -1.6 41 5.0 W 19 28 10 15 1012.8 1012.8 0.0
19/05:00am 11.2 5.2 -1.9 40 5.1 W 20 30 11 16 1012.5 1012.5 0.0
19/04:30am 11.6 5.7 -1.9 39 5.3 WSW 19 28 10 15 1012.3 1012.3 0.0
19/04:00am 11.8 5.3 -2.4 37 5.5 W 22 35 12 19 1012.0 1012.0 0.0
19/03:30am 11.8 5.7 -2.0 38 5.4 W 20 30 11 16 1011.8 1011.8 0.0
19/03:00am 12.0 5.9 -2.2 37 5.5 W 20 28 11 15 1011.7 1011.7 0.0
19/02:30am 12.3 6.4 -2.3 36 5.7 W 19 30 10 16 1011.9 1011.9 0.0
19/02:00am 12.4 6.9 -2.2 36 5.7 W 17 26 9 14 1011.8 1011.8 0.0
19/01:30am 12.5 6.4 -2.5 35 5.8 W 20 32 11 17 1012.0 1012.0 0.0
19/01:00am 12.8 7.3 -2.3 35 5.9 W 17 28 9 15 1012.1 1012.1 0.0
19/12:30am 13.3 7.2 -2.6 33 6.2 W 20 33 11 18 1012.1 1012.1 0.0
19/12:00am 13.5 6.6 -2.4 33 6.3 W 24 39 13 21 1012.3 1012.3 0.0
 
Date/Time
EST
Temp
°C
App
Temp
°C
Dew
Point
°C
Rel
Hum
%
Delta-T
°C
Wind Press
QNH
hPa
Press
MSL
hPa
Rain since
9am
mm
Dir  Spd
km/h
Gust
km/h
Spd
kts
Gust
kts
18/11:30pm 13.5 7.4 -2.4 33 6.3 W 20 30 11 16 1012.4 1012.4 0.0
18/11:00pm 13.7 7.6 -2.7 32 6.4 W 20 33 11 18 1012.7 1012.7 0.0
18/10:30pm 13.7 7.6 -2.3 33 6.3 W 20 30 11 16 1012.9 1012.9 0.0
18/10:00pm 14.2 7.3 -2.7 31 6.7 W 24 37 13 20 1013.0 1013.0 0.0
18/09:30pm 14.0 8.1 -2.4 32 6.5 W 19 28 10 15 1012.9 1012.9 0.0
18/09:00pm 14.5 8.6 -2.4 31 6.7 W 19 24 10 13 1012.7 1012.7 0.0
18/08:30pm 14.6 9.0 -2.8 30 6.9 W 17 28 9 15 1012.6 1012.6 0.0
18/08:00pm 14.4 8.4 -3.4 29 6.9 W 19 28 10 15 1012.5 1012.5 0.0
18/07:30pm 14.7 9.1 -3.1 29 7.0 W 17 28 9 15 1012.2 1012.2 0.0
18/07:00pm 15.5 9.3 -3.4 27 7.4 W 20 32 11 17 1011.8 1011.8 0.0
18/06:30pm 15.7 9.4 -3.7 26 7.6 W 20 32 11 17 1011.3 1011.3 0.0
18/06:00pm 16.4 9.4 -3.7 25 8.0 W 24 37 13 20 1010.9 1010.9 0.0
18/05:30pm 16.8 9.8 -3.3 25 8.0 WSW 24 43 13 23 1010.5 1010.5 0.0
18/05:00pm 17.6 10.6 -3.2 24 8.4 W 24 35 13 19 1010.0 1010.0 0.0
18/04:30pm 18.1 11.6 -2.8 24 8.6 WSW 22 33 12 18 1009.4 1009.4 0.0
18/04:09pm 18.7 11.0 -2.8 23 8.9 WSW 28 46 15 25 1008.9 1008.9 0.0
18/04:00pm 18.8 11.1 -2.7 23 8.9 W 28 41 15 22 1008.8 1008.8 0.0
18/03:30pm 19.4 12.2 -1.7 24 9.0 W 26 43 14 23 1008.3 1008.3 0.0
18/03:01pm 19.9 11.6 -1.8 23 9.2 WSW 32 50 17 27 1008.0 1008.0 0.0
18/03:00pm 19.7 11.4 -2.0 23 9.2 WSW 32 46 17 25 1008.0 1008.0 0.0
18/02:32pm 19.8 11.4 -2.5 22 9.3 W 32 50 17 27 1007.9 1007.9 0.0
18/02:30pm 20.0 11.6 -2.3 22 9.4 W 32 50 17 27 1007.8 1007.8 0.0
18/02:00pm 20.2 12.4 -1.0 24 9.2 W 30 50 16 27 1007.6 1007.6 0.0
18/01:55pm 20.1 12.6 -1.1 24 9.2 W 28 46 15 25 1007.6 1007.6 0.0
18/01:30pm 21.0 13.7 0.2 25 9.3 W 28 43 15 23 1007.9 1007.9 0.0
18/01:17pm 20.4 12.1 -1.4 23 9.4 W 32 50 17 27 1007.8 1007.8 0.0
18/01:00pm 20.5 12.8 -0.2 25 9.2 W 30 43 16 23 1007.8 1007.8 0.0
18/12:33pm 20.2 11.7 -1.6 23 9.3 W 33 52 18 28 1007.9 1007.9 0.0
18/12:30pm 20.1 10.9 -1.1 24 9.2 W 37 54 20 29 1008.1 1008.1 0.0
18/12:00pm 19.9 11.1 -1.2 24 9.1 W 35 54 19 29 1008.6 1008.6 0.0
18/11:39am 19.9 11.5 -1.2 24 9.1 W 33 52 18 28 1008.7 1008.7 0.0
18/11:30am 20.1 11.9 -1.1 24 9.2 WNW 32 46 17 25 1008.7 1008.7 0.0
18/11:12am 19.9 11.5 -0.7 25 9.0 W 33 56 18 30 1008.7 1008.7 0.0
18/11:00am 20.3 12.3 0.7 27 8.8 W 32 43 17 23 1008.9 1008.9 0.0
18/10:36am 19.8 12.5 -0.2 26 8.8 W 28 46 15 25 1009.2 1009.2 0.0
18/10:30am 20.2 13.6 2.1 30 8.3 W 26 39 14 21 1009.3 1009.3 0.0
18/10:00am 19.5 12.4 1.5 30 8.2 W 28 43 15 23 1009.7 1009.7 0.0
18/09:30am 19.5 13.3 1.9 31 8.0 W 24 39 13 21 1009.9 1009.9 0.0
18/09:16am 19.1 12.0 1.1 30 8.1 W 28 48 15 26 1010.0 1010.0 0.0

Other Formats:

Comma delimited format used in spreadsheet applications
http://www.bom.gov.au/fwo/IDN60801/IDN60801.94786.axf

JavaScript Object Notation format (JSON) in row-major order
http://www.bom.gov.au/fwo/IDN60801/IDN60801.94786.json